Terminal Aerodrome Forecast
Issued by NWS

Home | Current Version | Previous Version | Graphics & Text | Print | Product List | Glossary On
Versions: 1 2 3 4 5 6 7 8 9 10 11 12 13 14 15 16 17 18 19 20 21 22 23 24
392
FTUS43 KGRB 160341 AAA
TAFCWA
TAF AMD
KCWA 160341Z 1604/1624 VRB03KT P6SM -SN BKN018 BKN090
      TEMPO 1604/1608 3SM -SN
     FM160800 08005KT 1 1/2SM -SN OVC015
     FM161400 09006KT 4SM -SN OVC015
     FM161600 09009KT P6SM -SN OVC018=

USA.gov is the U.S. government's official web portal to all federal, state and local government web resources and services.